Flight Track Log - Related Links

Times and Time Zones

All times are in EDT time to prevent confusion due to time zone crossing. See the LBQ792 flight status page for this flight to view local times or setup timezone preferences in your user account.

Time Position Orientation Groundspeed Altitude Reporting Facility
EDT Latitude Longitude Course Direction KTS MPH feet Rate Location/Type
Thu 08:29:30 PM 40.4442 -76.1761 346° North 172 198 5,500  Level New Center
Thu 08:30:30 PM 40.4581 -76.2347 287° West 172 198 6,700 1,190 Climbing New Center
Thu 08:31:31 PM 40.4800 -76.3019 293° West 185 213 7,900 1,169 Climbing New Center
Thu 08:32:00 PM 40.5167 -76.4374 270° West  Level FlightAware
Thu 08:32:28 PM 40.5292 -76.3167 347° North 164 189 9,000  Level New Center
Thu 08:33:00 PM 40.5363 -76.5284 288° West  Level FlightAware
Thu 08:33:29 PM 40.5789 -76.3261 352° North 170 196 10,000  Level New Center
Thu 08:34:00 PM 40.5775 -76.5925 346° North  Level FlightAware
Thu 08:34:31 PM 40.6283 -76.3383 349° North 181 208 10,800  Level New Center
Thu 08:35:29 PM 40.6797 -76.3536 347° North 181 208 11,500 605 Climbing New Center
Thu 08:36:30 PM 40.7331 -76.3717 346° North 191 220 12,000 248 Climbing New Center
Thu 08:37:30 PM 40.7925 -76.3903 347° North 207 238 12,000  Level New Center
Thu 08:38:29 PM 40.8539 -76.4144 343° North 221 254 12,000  Level New Center
Thu 08:39:30 PM 40.9153 -76.4361 345° North 221 254 12,000  Level New Center
Thu 08:40:29 PM 40.9750 -76.4547 347° North 221 254 12,000  Level New Center
Thu 08:41:30 PM 41.0303 -76.4758 344° North 221 254 12,000  Level New Center
Thu 08:42:29 PM 41.0914 -76.5031 341° North 221 254 12,000  Level New Center
Thu 08:43:30 PM 41.1589 -76.5281 344° North 221 254 12,000  Level New Center
Thu 08:44:31 PM 41.2203 -76.5497 345° North 221 254 12,000  Level New Center
Thu 08:45:28 PM 41.2797 -76.5742 343° North 221 254 12,000  Level New Center
Thu 08:46:30 PM 41.3347 -76.5956 344° North 221 254 12,000  Level New Center
Thu 08:47:31 PM 41.3961 -76.6175 345° North 221 254 12,000  Level New Center
Thu 08:48:31 PM 41.4617 -76.6397 346° North 221 254 12,000  Level New Center
Thu 08:49:29 PM 41.5228 -76.6672 341° North 221 254 12,000  Level New Center
Thu 08:50:30 PM 41.5822 -76.6864 346° North 221 254 12,000 -49 Level New Center
Thu 08:51:31 PM 41.6436 -76.7111 343° North 221 254 11,900 -645 Descending New Center
Thu 08:52:31 PM 41.7072 -76.7308 347° North 221 254 10,700 -1,140 Descending New Center
Thu 08:53:32 PM 41.7728 -76.7506 347° North 221 254 9,600 -1,109 Descending New Center
Thu 08:54:30 PM 41.8364 -76.7703 347° North 226 260 8,500 -1,179 Descending New Center
Thu 08:55:29 PM 41.9044 -76.7819 353° North 237 273 7,300 -1,300 Descending New Center
Thu 08:56:30 PM 41.9725 -76.7964 351° North 242 278 5,900 -1,140 Descending New Center
Thu 08:57:30 PM 42.0342 -76.8106 350° North 247 284 5,000 -545 Descending New Center
Thu 08:58:31 PM 42.0981 -76.8247 351° North 247 284 4,800 -864 Descending New Center
Thu 08:59:28 PM 42.1511 -76.8492 341° North 224 258 3,300 -1,475 Descending New Center
Thu 09:00:29 PM 42.1911 -76.8781 332° Northwest 200 230 1,900 2,850 Descending New Center
Thu 09:01:28 PM 42.2419 -76.9022 341° North 200 230 9,000 3,521 Climbing New Center
Thu 09:02:30 PM 42.2925 -76.9294 338° Northwest 200 230 9,000  Level New Center
Thu 09:03:31 PM 42.3433 -76.9539 340° North 200 230 9,000  Level New Center
Thu 09:04:29 PM 42.3533 -76.9606 334° Northwest 200 230 9,000  Level New Center

Login

Don't have an account? Register now (free) for customized features, flight alerts, and more!